Time;durP1;ratioP1;P1;durP2;ratioP2;P2;SDS_P1;SDS_P2;PMS_P1;PMS_P2;Temp;Humidity;BMP_temperature;BMP_pressure;BME280_temperature;BME280_humidity;BME280_pressure;Samples;Min_cycle;Max_cycle;Signal;HPM_P1;HPM_P2
2021/03/25 00:00:49;;;;;;;23.83;6.35;;;;;;;-1.51;63.14;99591.16;1841714;78;20920;-67
2021/03/25 00:03:18;;;;;;;16.05;5.90;;;;;;;-1.50;63.22;99592.80;1841670;77;22796;-67
2021/03/25 00:05:49;;;;;;;22.27;6.22;;;;;;;-1.53;63.12;99591.40;1841591;78;20921;-67
2021/03/25 00:08:20;;;;;;;26.40;6.65;;;;;;;-1.54;63.07;99590.28;1841741;78;20924;-67
2021/03/25 00:10:49;;;;;;;23.77;5.92;;;;;;;-1.57;62.95;99586.19;1841778;78;21086;-67
2021/03/25 00:13:18;;;;;;;25.57;7.17;;;;;;;-1.57;63.14;99586.72;1841676;77;20924;-67
2021/03/25 00:15:46;;;;;;;14.25;6.53;;;;;;;-1.60;63.45;99586.66;1841678;78;21368;-67
2021/03/25 00:18:14;;;;;;;17.57;7.72;;;;;;;-1.64;63.31;99585.50;1831472;76;21029;-67
2021/03/25 00:20:44;;;;;;;24.75;7.92;;;;;;;-1.69;63.45;99578.65;1816633;78;21007;-67
2021/03/25 00:23:12;;;;;;;27.67;7.72;;;;;;;-1.73;63.40;99583.68;1808537;79;21142;-67
2021/03/25 00:25:40;;;;;;;17.98;7.15;;;;;;;-1.72;63.80;99577.25;1808635;78;20916;-67
2021/03/25 00:28:11;;;;;;;30.90;7.50;;;;;;;-1.71;63.82;99572.69;1808611;79;21202;-67
2021/03/25 00:30:39;;;;;;;28.90;7.50;;;;;;;-1.71;63.30;99569.47;1808587;79;20932;-67
2021/03/25 00:33:09;;;;;;;20.17;7.37;;;;;;;-1.72;63.13;99572.39;1808652;79;20936;-67
2021/03/25 00:35:40;;;;;;;16.25;6.30;;;;;;;-1.75;62.92;99578.27;1808647;79;21641;-67
2021/03/25 00:38:10;;;;;;;26.70;7.45;;;;;;;-1.80;63.60;99576.28;1808589;79;21040;-67
2021/03/25 00:40:39;;;;;;;24.98;7.50;;;;;;;-1.85;63.85;99572.13;1808192;79;21199;-67
2021/03/25 00:43:08;;;;;;;23.32;6.75;;;;;;;-1.89;63.74;99575.52;1808490;79;20943;-67
2021/03/25 00:45:40;;;;;;;22.20;7.40;;;;;;;-1.95;63.98;99572.42;1808582;79;20932;-67
2021/03/25 00:48:10;;;;;;;30.35;8.03;;;;;;;-2.01;64.41;99572.30;1791207;79;21059;-67
2021/03/25 00:50:48;;;;;;;30.70;9.68;;;;;;;-2.08;65.08;99574.28;1776732;80;21054;-67
2021/03/25 00:53:22;;;;;;;18.57;6.50;;;;;;;-2.08;65.70;99575.63;1776757;80;22168;-67
2021/03/25 00:55:49;;;;;;;41.50;9.73;;;;;;;-2.11;65.53;99570.71;1776709;80;20955;-67
2021/03/25 00:58:18;;;;;;;33.35;9.38;;;;;;;-2.14;65.51;99564.98;1776604;80;20932;-68
2021/03/25 01:00:46;;;;;;;35.75;8.63;;;;;;;-2.15;65.38;99572.75;1776687;80;21583;-67
2021/03/25 01:03:16;;;;;;;36.23;7.67;;;;;;;-2.16;66.04;99570.59;1776676;80;20987;-67
2021/03/25 01:05:45;;;;;;;24.47;7.87;;;;;;;-2.15;65.81;99574.09;1748916;80;22142;-67
2021/03/25 01:08:31;;;;;;;30.43;8.43;;;;;;;-2.14;65.52;99577.08;1776369;80;20964;-67
2021/03/25 01:11:09;;;;;;;25.17;7.83;;;;;;;-2.14;65.34;99579.25;1775308;80;20952;-67
2021/03/25 01:13:51;;;;;;;24.92;7.60;;;;;;;-2.15;65.26;99570.88;1776122;80;21479;-67
2021/03/25 01:16:31;;;;;;;19.50;7.03;;;;;;;-2.13;65.91;99584.09;1776385;80;21496;-66
2021/03/25 01:19:01;;;;;;;25.65;7.42;;;;;;;-2.12;65.70;99585.21;1776208;80;22126;-67
2021/03/25 01:21:30;;;;;;;22.70;6.95;;;;;;;-2.14;65.59;99584.63;1776165;80;21019;-67
2021/03/25 01:23:58;;;;;;;20.30;5.80;;;;;;;-2.14;65.47;99575.21;1776064;80;20932;-67
2021/03/25 01:26:28;;;;;;;18.87;6.90;;;;;;;-2.15;65.62;99576.78;1776213;80;21087;-67
2021/03/25 01:29:00;;;;;;;18.40;6.33;;;;;;;-2.16;67.61;99581.34;1776192;80;20888;-67
2021/03/25 01:31:29;;;;;;;30.52;8.08;;;;;;;-2.17;66.59;99577.55;1776113;80;21366;-67
2021/03/25 01:33:59;;;;;;;19.70;7.47;;;;;;;-2.22;66.35;99577.42;1776117;80;21118;-67
2021/03/25 01:36:28;;;;;;;16.32;7.42;;;;;;;-2.23;66.18;99576.59;1776068;80;20944;-67
2021/03/25 01:38:58;;;;;;;17.42;7.08;;;;;;;-2.21;66.12;99577.72;1776018;80;20952;-67
2021/03/25 01:41:33;;;;;;;18.95;7.62;;;;;;;-2.20;66.42;99579.35;1776142;80;20931;-67
2021/03/25 01:44:02;;;;;;;19.52;7.15;;;;;;;-2.20;66.30;99575.31;1775376;78;22325;-67
2021/03/25 01:46:37;;;;;;;23.20;8.33;;;;;;;-2.21;66.14;99570.98;1807910;79;21396;-67
2021/03/25 01:49:12;;;;;;;18.80;7.28;;;;;;;-2.22;66.00;99563.45;1807915;79;20980;-67
2021/03/25 01:52:12;;;;;;;20.05;7.25;;;;;;;-2.22;65.92;99567.48;1780235;79;20912;-67
2021/03/25 01:55:09;;;;;;;17.05;6.37;;;;;;;-2.22;66.13;99564.80;1807918;79;20877;-67
2021/03/25 01:57:55;;;;;;;21.70;6.97;;;;;;;-2.22;65.90;99563.45;1811820;79;21335;-67
2021/03/25 02:00:45;;;;;;;17.77;6.70;;;;;;;-2.25;65.92;99569.29;1792600;79;21901;-67
2021/03/25 02:03:54;;;;;;;15.72;6.97;;;;;;;-2.29;66.03;99564.60;1816573;79;21047;-67
2021/03/25 02:06:40;;;;;;;16.67;5.97;;;;;;;-2.32;67.19;99569.95;1815044;79;20971;-67
2021/03/25 02:09:20;;;;;;;19.65;6.37;;;;;;;-2.33;66.66;99568.31;1816548;78;20924;-67
2021/03/25 02:12:33;;;;;;;13.95;6.17;;;;;;;-2.36;66.36;99567.43;1815838;79;21139;-66
2021/03/25 02:15:21;;;;;;;15.78;6.40;;;;;;;-2.39;66.32;99565.20;1816678;79;21010;-67
2021/03/25 02:18:16;;;;;;;14.93;6.00;;;;;;;-2.44;66.88;99561.86;1786491;79;21026;-67
2021/03/25 02:21:21;;;;;;;17.27;6.72;;;;;;;-2.47;67.22;99565.53;1873730;75;23218;-67
2021/03/25 02:24:12;;;;;;;17.92;6.28;;;;;;;-2.55;67.20;99558.62;1841585;77;20995;-67
2021/03/25 02:27:20;;;;;;;15.32;6.30;;;;;;;-2.58;67.37;99562.29;1841810;78;21331;-67
2021/03/25 02:30:17;;;;;;;14.60;5.80;;;;;;;-2.58;68.24;99562.29;1841622;78;21510;-67
2021/03/25 02:32:58;;;;;;;15.32;6.60;;;;;;;-2.61;67.90;99560.88;1840649;78;21136;-67
2021/03/25 02:35:39;;;;;;;17.05;6.53;;;;;;;-2.66;67.67;99563.44;1841249;78;20925;-67
2021/03/25 02:38:12;;;;;;;14.70;5.90;;;;;;;-2.67;67.61;99565.83;1841758;78;20917;-67
2021/03/25 02:40:45;;;;;;;13.83;5.97;;;;;;;-2.69;67.92;99562.02;1841636;78;21585;-67
2021/03/25 02:43:22;;;;;;;17.75;6.67;;;;;;;-2.68;67.94;99554.26;1841642;78;21463;-67
2021/03/25 02:46:00;;;;;;;16.60;6.22;;;;;;;-2.71;67.92;99560.09;1808630;79;20991;-67
2021/03/25 02:48:28;;;;;;;16.52;6.40;;;;;;;-2.74;68.45;99559.20;1787778;78;21466;-67
2021/03/25 02:51:02;;;;;;;17.65;6.75;;;;;;;-2.74;68.30;99560.55;1782729;78;21055;-67
2021/03/25 02:53:40;;;;;;;17.37;6.67;;;;;;;-2.76;68.19;99555.92;1807805;79;21007;-67
2021/03/25 02:56:29;;;;;;;12.82;5.42;;;;;;;-2.79;68.57;99561.76;1808677;79;21494;-67
2021/03/25 02:59:03;;;;;;;16.50;5.65;;;;;;;-2.83;68.65;99555.72;1808573;79;21019;-67
2021/03/25 03:01:33;;;;;;;14.50;6.53;;;;;;;-2.85;68.69;99555.95;1808772;78;21608;-67
2021/03/25 03:04:12;;;;;;;14.07;5.53;;;;;;;-2.85;68.96;99557.30;1808728;79;21530;-66
2021/03/25 03:06:54;;;;;;;16.03;5.67;;;;;;;-2.85;68.89;99557.81;1808884;79;21919;-67
2021/03/25 03:09:28;;;;;;;14.98;5.78;;;;;;;-2.86;68.76;99565.58;1808532;78;21010;-67
2021/03/25 03:12:00;;;;;;;15.23;6.03;;;;;;;-2.88;68.70;99556.41;1808575;79;21047;-67
2021/03/25 03:14:48;;;;;;;13.93;5.50;;;;;;;-2.87;68.99;99555.88;1755198;79;21565;-67
2021/03/25 03:17:47;;;;;;;13.88;6.03;;;;;;;-2.88;69.03;99559.09;1780853;79;20923;-67
2021/03/25 03:20:45;;;;;;;12.00;5.62;;;;;;;-2.88;68.99;99556.93;1808413;78;21360;-67
2021/03/25 03:23:26;;;;;;;15.08;5.37;;;;;;;-2.87;69.22;99554.02;1888670;76;22214;-67
2021/03/25 03:25:55;;;;;;;11.45;5.28;;;;;;;-2.92;69.44;99555.25;1766012;80;21038;-67
2021/03/25 03:28:45;;;;;;;13.32;6.15;;;;;;;-2.93;69.64;99561.67;1835472;77;21567;-67
2021/03/25 03:31:28;;;;;;;11.10;4.97;;;;;;;-2.94;69.54;99567.27;1805465;79;20930;-67
2021/03/25 03:34:04;;;;;;;11.45;5.10;;;;;;;-2.97;69.49;99561.83;1814268;79;20982;-67
2021/03/25 03:36:33;;;;;;;15.65;6.60;;;;;;;-3.00;69.61;99567.66;1814925;79;20934;-66
2021/03/25 03:39:13;;;;;;;24.47;9.53;;;;;;;-3.02;69.88;99567.06;1814930;79;21552;-67
2021/03/25 03:41:47;;;;;;;25.25;10.10;;;;;;;-3.03;69.78;99564.91;1812443;78;21472;-67
2021/03/25 03:44:26;;;;;;;16.85;8.13;;;;;;;-3.04;69.67;99569.16;1785883;79;21604;-67
2021/03/25 03:46:56;;;;;;;18.23;7.25;;;;;;;-3.06;69.75;99557.81;1785403;79;20946;-67
2021/03/25 03:49:40;;;;;;;14.73;6.40;;;;;;;-3.07;69.88;99564.23;1745934;81;21042;-67
2021/03/25 03:52:15;;;;;;;20.68;6.17;;;;;;;-3.07;69.87;99562.89;1773890;81;21069;-67
2021/03/25 03:54:48;;;;;;;14.18;5.50;;;;;;;-3.08;69.68;99565.28;1773855;81;21339;-67
2021/03/25 03:57:41;;;;;;;15.58;6.22;;;;;;;-3.08;69.52;99559.91;1722602;81;21018;-66
2021/03/25 04:00:28;;;;;;;15.48;6.17;;;;;;;-3.09;69.39;99569.84;1773574;81;21073;-66
2021/03/25 04:03:37;;;;;;;10.30;5.20;;;;;;;-3.07;69.58;99568.27;1773356;81;21588;-66
2021/03/25 04:06:19;;;;;;;9.68;4.90;;;;;;;-3.09;69.42;99564.46;1773750;81;21006;-67
2021/03/25 04:09:18;;;;;;;13.93;6.08;;;;;;;-3.05;69.32;99568.34;1890154;76;22437;-67
2021/03/25 04:11:52;;;;;;;13.00;5.55;;;;;;;-3.08;69.35;99570.12;1859759;77;20896;-67
2021/03/25 04:14:26;;;;;;;18.48;6.80;;;;;;;-3.07;69.49;99569.61;1861045;77;22358;-67
2021/03/25 04:17:04;;;;;;;11.25;5.25;;;;;;;-3.06;69.10;99573.41;1859426;77;21538;-67
2021/03/25 04:19:41;;;;;;;15.80;6.33;;;;;;;-3.06;69.00;99568.04;1861051;77;20931;-67
2021/03/25 04:22:23;;;;;;;11.18;5.83;;;;;;;-3.06;68.96;99574.75;1858469;77;21023;-67
2021/03/25 04:25:14;;;;;;;16.37;6.00;;;;;;;-3.03;69.13;99576.16;1859296;77;21025;-67
2021/03/25 04:27:53;;;;;;;18.70;7.22;;;;;;;-3.01;69.09;99576.23;1861045;77;21347;-67
2021/03/25 04:30:27;;;;;;;17.05;6.95;;;;;;;-2.97;69.13;99577.95;1861048;77;21121;-67
2021/03/25 04:32:56;;;;;;;14.70;6.10;;;;;;;-2.94;68.81;99576.67;1821414;77;20876;-68
2021/03/25 04:35:24;;;;;;;20.77;6.78;;;;;;;-2.89;69.42;99583.53;1860957;77;20916;-67
2021/03/25 04:37:52;;;;;;;15.55;6.17;;;;;;;-2.85;69.67;99584.69;1861052;77;20983;-67
2021/03/25 04:40:35;;;;;;;16.45;6.40;;;;;;;-2.81;69.18;99585.34;1860977;77;21183;-67
2021/03/25 04:43:03;;;;;;;18.48;6.00;;;;;;;-2.77;68.83;99586.53;1861041;77;21542;-67
2021/03/25 04:46:07;;;;;;;14.87;6.50;;;;;;;-2.73;68.74;99590.92;1863065;76;21533;-68
2021/03/25 04:48:39;;;;;;;14.93;5.95;;;;;;;-2.68;69.00;99583.00;1858350;76;21460;-67
2021/03/25 04:51:20;;;;;;;20.35;7.83;;;;;;;-2.61;68.82;99586.41;1841758;77;21097;-68
2021/03/25 04:53:51;;;;;;;22.35;6.97;;;;;;;-2.54;68.70;99590.34;1860503;76;21183;-67
2021/03/25 04:56:21;;;;;;;20.37;6.95;;;;;;;-2.48;68.18;99587.56;1842284;77;20926;-67
2021/03/25 04:58:58;;;;;;;14.73;6.22;;;;;;;-2.44;68.50;99590.61;1861407;77;21014;-67
2021/03/25 05:01:28;;;;;;;21.10;6.58;;;;;;;-2.40;68.66;99586.41;1861415;76;21474;-67
2021/03/25 05:03:59;;;;;;;20.30;7.53;;;;;;;-2.34;68.47;99586.31;1861369;77;20910;-66
2021/03/25 05:06:46;;;;;;;21.27;7.67;;;;;;;-2.26;68.20;99591.85;1861777;76;22189;-66
2021/03/25 05:09:20;;;;;;;22.98;8.28;;;;;;;-2.18;68.41;99588.01;1852030;77;20899;-66
2021/03/25 05:11:48;;;;;;;19.35;7.75;;;;;;;-2.10;68.57;99592.52;1861643;76;20918;-68
2021/03/25 05:14:23;;;;;;;22.67;7.85;;;;;;;-2.01;68.33;99595.69;1861695;77;20910;-67
2021/03/25 05:17:33;;;;;;;16.73;7.12;;;;;;;-1.90;67.85;99590.03;1843907;77;20923;-67
2021/03/25 05:20:22;;;;;;;15.23;6.17;;;;;;;-1.82;67.62;99591.03;1821781;77;23447;-67
2021/03/25 05:23:25;;;;;;;13.78;5.92;;;;;;;-1.69;67.34;99596.14;1849561;77;20977;-67
2021/03/25 05:26:03;;;;;;;16.60;7.47;;;;;;;-1.60;66.88;99596.61;1849734;77;21568;-67
2021/03/25 05:28:43;;;;;;;11.63;6.58;;;;;;;-1.50;66.12;99607.08;1860774;77;21014;-67
2021/03/25 05:31:13;;;;;;;16.48;6.87;;;;;;;-1.42;65.62;99608.06;1861051;76;21116;-68
2021/03/25 05:33:40;;;;;;;25.97;11.78;;;;;;;-1.34;65.08;99605.55;1860961;77;21434;-67
2021/03/25 05:36:11;;;;;;;26.10;11.88;;;;;;;-1.27;65.09;99614.84;1864718;76;21607;-67
2021/03/25 05:38:39;;;;;;;24.02;10.85;;;;;;;-1.20;64.74;99607.45;1856165;76;22367;-68
2021/03/25 05:41:32;;;;;;;18.23;8.25;;;;;;;-1.14;64.15;99609.16;1855517;76;21187;-68
2021/03/25 05:44:33;;;;;;;12.43;5.78;;;;;;;-1.06;64.22;99606.10;1832998;76;21141;-67
2021/03/25 05:47:12;;;;;;;13.13;4.90;;;;;;;-0.96;63.56;99610.35;1789201;79;21217;-66
2021/03/25 05:50:32;;;;;;;10.58;5.40;;;;;;;-0.86;62.73;99611.09;1790318;80;21011;-66
2021/03/25 05:53:39;;;;;;;9.55;4.30;;;;;;;-0.76;62.55;99619.37;1794920;78;21047;-66
2021/03/25 05:57:01;;;;;;;10.90;5.30;;;;;;;-0.67;61.35;99616.05;1789060;80;21094;-65
2021/03/25 05:59:33;;;;;;;14.47;5.95;;;;;;;-0.58;61.71;99619.72;1761640;78;21515;-68
2021/03/25 06:02:08;;;;;;;;;;;;;;;-0.50;61.06;99628.20;1794086;80;21378;-66
2021/03/25 06:04:37;;;;;;;14.70;5.53;;;;;;;-0.44;61.07;99627.24;1789633;79;20155;-68
2021/03/25 06:07:43;;;;;;;14.83;6.80;;;;;;;-0.35;60.86;99623.62;1789861;80;20918;-68
2021/03/25 06:10:40;;;;;;;14.68;6.25;;;;;;;-0.21;60.99;99629.00;1793731;78;20942;-68
2021/03/25 06:13:45;;;;;;;17.35;6.72;;;;;;;-0.04;60.34;99628.49;1792970;80;20934;-68
2021/03/25 06:16:38;;;;;;;15.25;6.10;;;;;;;0.11;59.26;99628.43;1793091;79;20938;-68
2021/03/25 06:19:45;;;;;;;15.68;6.12;;;;;;;0.23;59.01;99631.87;1792883;79;20918;-69
2021/03/25 06:22:44;;;;;;;23.85;6.28;;;;;;;0.37;58.58;99626.42;1793117;79;20942;-68
2021/03/25 06:25:59;;;;;;;12.23;6.30;;;;;;;0.47;57.99;99628.45;1792985;79;20954;-68
2021/03/25 06:28:37;;;;;;;15.78;6.30;;;;;;;0.59;57.97;99618.34;1793005;80;20907;-68
2021/03/25 06:31:44;;;;;;;16.95;5.70;;;;;;;0.71;56.97;99624.98;1807029;78;22307;-68
2021/03/25 06:34:43;;;;;;;15.05;6.15;;;;;;;0.81;56.88;99622.42;1792338;80;21025;-67
2021/03/25 06:37:18;;;;;;;13.03;6.03;;;;;;;0.93;56.37;99627.19;1792479;79;21576;-67
2021/03/25 06:40:08;;;;;;;15.55;6.28;;;;;;;1.05;56.45;99627.88;1766222;80;20980;-67
2021/03/25 06:43:01;;;;;;;11.80;5.03;;;;;;;1.15;55.81;99622.60;1791663;80;21575;-66
2021/03/25 06:45:38;;;;;;;13.05;5.28;;;;;;;1.26;55.12;99632.44;1792366;79;21206;-67
2021/03/25 06:48:23;;;;;;;14.45;5.58;;;;;;;1.36;55.08;99626.33;1792259;80;21144;-67
2021/03/25 06:50:54;;;;;;;16.93;6.12;;;;;;;1.48;55.43;99620.25;1792265;80;21155;-68
2021/03/25 06:53:32;;;;;;;26.40;7.08;;;;;;;1.64;54.97;99627.98;1793802;78;21037;-68
2021/03/25 06:56:05;;;;;;;14.75;5.00;;;;;;;1.79;54.80;99629.46;1807259;78;20993;-67
2021/03/25 06:58:46;;;;;;;10.35;4.33;;;;;;;1.94;52.60;99627.44;1793033;80;22109;-67
2021/03/25 07:01:35;;;;;;;11.60;5.08;;;;;;;2.01;51.62;99634.00;1791943;80;21064;-68
2021/03/25 07:04:18;;;;;;;14.43;6.05;;;;;;;2.05;51.87;99624.28;1792093;80;21057;-68
2021/03/25 07:06:46;;;;;;;16.40;5.00;;;;;;;2.10;50.71;99622.44;1792547;78;21159;-68
2021/03/25 07:09:15;;;;;;;10.10;5.17;;;;;;;2.17;51.24;99616.27;1764492;80;21616;-68
2021/03/25 07:11:42;;;;;;;12.95;5.42;;;;;;;2.28;51.81;99622.58;1760736;80;22282;-68
2021/03/25 07:14:18;;;;;;;11.22;4.72;;;;;;;2.40;51.36;99621.02;1789564;80;21631;-68
2021/03/25 07:16:49;;;;;;;11.50;4.78;;;;;;;2.53;51.34;99611.89;1789835;80;20938;-67
2021/03/25 07:19:21;;;;;;;8.73;4.25;;;;;;;2.73;51.20;99617.16;1789877;80;21049;-66
2021/03/25 07:21:53;;;;;;;14.33;5.42;;;;;;;2.89;50.22;99617.50;1790084;80;21839;-67
2021/03/25 07:27:13;;;;;;;11.57;5.42;;;;;;;3.59;48.13;99614.20;1888778;76;22624;-65
2021/03/25 07:29:50;;;;;;;11.45;5.17;;;;;;;4.04;47.57;99618.63;1775514;80;21564;-67
2021/03/25 07:32:34;;;;;;;12.15;4.70;;;;;;;4.57;44.80;99606.34;1815821;77;21389;-67
2021/03/25 07:35:14;;;;;;;14.85;5.15;;;;;;;5.57;42.45;99617.09;1849463;77;21057;-69
2021/03/25 07:37:43;;;;;;;8.00;4.03;;;;;;;5.57;42.45;99617.09;1820335;77;20926;-68
2021/03/25 07:40:31;;;;;;;10.08;4.20;;;;;;;6.02;42.01;99617.34;1834509;77;20953;-67
2021/03/25 07:43:17;;;;;;;13.35;5.85;;;;;;;6.38;40.77;99608.30;1817858;78;20910;-68
2021/03/25 07:45:46;;;;;;;7.42;3.95;;;;;;;6.80;39.87;99604.89;1806700;77;21307;-68
2021/03/25 07:48:25;;;;;;;10.10;4.83;;;;;;;7.14;37.94;99608.03;1794616;79;20985;-68
2021/03/25 07:51:12;;;;;;;11.25;5.25;;;;;;;7.16;37.50;99606.64;1797005;79;20966;-68
2021/03/25 07:53:41;;;;;;;9.45;4.60;;;;;;;7.21;36.67;99602.48;1778331;80;20983;-67
2021/03/25 07:56:15;;;;;;;10.98;4.35;;;;;;;7.33;37.36;99598.52;1838988;78;20918;-67
2021/03/25 07:58:46;;;;;;;15.00;4.28;;;;;;;7.54;36.86;99593.83;1838046;78;21186;-68
2021/03/25 08:01:21;;;;;;;11.15;4.30;;;;;;;7.87;35.63;99607.02;1838873;78;20993;-68
2021/03/25 08:03:54;;;;;;;7.22;3.70;;;;;;;8.03;35.48;99598.59;1843080;77;20887;-68
2021/03/25 08:06:28;;;;;;;7.28;4.12;;;;;;;8.00;35.22;99595.09;1807265;79;20986;-66
2021/03/25 08:09:09;;;;;;;9.40;3.58;;;;;;;8.06;34.69;99589.80;1850059;77;21463;-66
2021/03/25 08:11:59;;;;;;;8.13;3.58;;;;;;;8.24;34.90;99582.08;1850045;77;23425;-67
2021/03/25 08:14:31;;;;;;;8.75;3.60;;;;;;;8.40;33.15;99581.30;1849864;77;20938;-67
2021/03/25 08:17:13;;;;;;;15.68;5.00;;;;;;;8.31;32.68;99559.82;1807150;79;21133;-66
2021/03/25 08:19:56;;;;;;;10.38;3.87;;;;;;;8.36;33.53;99585.19;1849920;77;21108;-66
2021/03/25 08:22:46;;;;;;;10.55;3.98;;;;;;;8.34;32.89;99572.93;1845641;77;21052;-66
2021/03/25 08:25:45;;;;;;;9.43;3.85;;;;;;;8.47;32.15;99583.91;1846768;77;21181;-67
2021/03/25 08:28:35;;;;;;;10.32;3.52;;;;;;;8.54;32.74;99582.95;1816566;79;21002;-65
2021/03/25 08:31:31;;;;;;;6.65;3.30;;;;;;;8.54;31.44;99561.06;1816929;79;20972;-68
2021/03/25 08:34:11;;;;;;;11.50;5.15;;;;;;;8.53;31.58;99588.73;1816847;79;20900;-66
2021/03/25 08:36:48;;;;;;;9.60;4.53;;;;;;;8.46;31.73;99581.47;1816718;79;20920;-67
2021/03/25 08:39:50;;;;;;;17.12;5.53;;;;;;;8.43;31.50;99578.78;1816339;79;21370;-66
2021/03/25 08:42:38;;;;;;;14.53;7.12;;;;;;;8.53;31.67;99580.52;1815978;77;21582;-66
2021/03/25 08:45:28;;;;;;;14.05;7.12;;;;;;;8.68;31.61;99576.11;1816203;79;20908;-66
2021/03/25 08:48:11;;;;;;;12.15;4.65;;;;;;;8.91;31.79;99579.78;1816242;79;20936;-67
2021/03/25 08:51:19;;;;;;;10.88;4.67;;;;;;;8.99;30.11;99568.13;1816437;79;20935;-71
2021/03/25 08:54:04;;;;;;;19.48;5.15;;;;;;;9.11;29.58;99573.90;1816270;79;21206;-66
2021/03/25 08:56:50;;;;;;;15.60;5.55;;;;;;;9.39;29.27;99564.26;1816246;79;21007;-67
2021/03/25 08:59:29;;;;;;;13.53;4.45;;;;;;;9.49;28.51;99565.41;1816403;79;20931;-66
2021/03/25 09:02:33;;;;;;;11.12;4.65;;;;;;;9.65;28.45;99565.31;1789381;79;21010;-66
2021/03/25 09:05:09;;;;;;;11.78;4.12;;;;;;;9.86;29.20;99559.58;1771674;79;21157;-66
2021/03/25 09:07:37;;;;;;;10.68;4.42;;;;;;;9.91;28.29;99566.32;1816408;79;22233;-66
2021/03/25 09:10:09;;;;;;;8.15;3.45;;;;;;;9.92;27.91;99569.31;1816192;79;21577;-66
2021/03/25 09:12:36;;;;;;;9.95;3.60;;;;;;;9.95;28.42;99571.99;1816519;79;21502;-65
2021/03/25 09:15:06;;;;;;;9.35;3.98;;;;;;;10.00;28.32;99577.36;1815901;77;21137;-66
2021/03/25 09:17:38;;;;;;;11.88;4.95;;;;;;;10.17;28.82;99566.52;1816287;79;21014;-66
2021/03/25 09:20:10;;;;;;;12.37;6.33;;;;;;;10.34;28.60;99570.53;1816285;79;22384;-66
2021/03/25 09:22:52;;;;;;;15.00;5.67;;;;;;;10.50;27.11;99567.05;1816187;79;20932;-66
2021/03/25 09:25:36;;;;;;;7.75;3.50;;;;;;;10.59;27.01;99571.22;1816153;79;21041;-66
2021/03/25 09:28:17;;;;;;;10.13;4.03;;;;;;;10.42;26.56;99563.69;1852934;77;20934;-66
2021/03/25 09:31:11;;;;;;;13.68;4.95;;;;;;;10.31;27.29;99569.22;1838391;77;21544;-66
2021/03/25 09:33:54;;;;;;;13.50;4.65;;;;;;;10.33;27.30;99566.16;1813183;78;21469;-67
2021/03/25 09:36:38;;;;;;;4.97;2.65;;;;;;;10.39;27.63;99578.63;1778009;80;20982;-68
2021/03/25 09:39:21;;;;;;;7.62;3.35;;;;;;;10.63;26.97;99565.91;1745217;82;21002;-69
2021/03/25 09:41:49;;;;;;;8.73;4.22;;;;;;;10.95;27.32;99564.20;1744387;82;21561;-66
2021/03/25 09:44:24;;;;;;;8.10;3.85;;;;;;;11.30;26.12;99565.65;1746551;82;21096;-67
2021/03/25 09:47:05;;;;;;;10.18;4.08;;;;;;;11.48;25.48;99561.24;1747174;82;21543;-67
2021/03/25 09:49:54;;;;;;;13.85;4.67;;;;;;;11.60;25.38;99560.58;1745477;82;21002;-67
2021/03/25 09:52:36;;;;;;;21.20;4.80;;;;;;;11.68;25.09;99562.53;1755933;81;21013;-66
2021/03/25 09:55:09;;;;;;;7.47;3.50;;;;;;;12.12;25.30;99549.61;1757283;80;21172;-66
2021/03/25 09:57:40;;;;;;;12.45;3.02;;;;;;;12.12;25.30;99549.61;1751929;80;21626;-67
2021/03/25 10:00:30;;;;;;;5.70;2.50;;;;;;;12.43;24.09;99550.18;1755956;81;21199;-67
2021/03/25 10:03:01;;;;;;;9.55;3.33;;;;;;;12.67;24.39;99557.08;1756275;80;20950;-67
2021/03/25 10:05:34;;;;;;;7.30;3.30;;;;;;;12.72;22.74;99556.30;1779316;80;21113;-67
2021/03/25 10:08:19;;;;;;;8.53;3.00;;;;;;;12.62;23.52;99560.82;1772064;81;21141;-66
2021/03/25 10:10:57;;;;;;;6.47;2.72;;;;;;;12.58;23.82;99572.82;1772053;81;20939;-67
2021/03/25 10:13:43;;;;;;;10.95;4.50;;;;;;;12.72;23.84;99560.44;1771981;80;20931;-67
2021/03/25 10:16:38;;;;;;;10.98;4.35;;;;;;;12.77;23.41;99556.12;1771946;80;21073;-68
2021/03/25 10:19:10;;;;;;;11.48;4.45;;;;;;;12.83;23.54;99558.94;1753786;81;21007;-67
2021/03/25 10:24:40;;;;;;;7.53;2.20;;;;;;;12.79;21.94;99549.72;1845257;76;21993;-66
2021/03/25 10:27:36;;;;;;;8.23;2.85;;;;;;;12.65;22.09;99558.78;1813977;77;21012;-66
2021/03/25 10:30:20;;;;;;;3.83;2.20;;;;;;;12.60;22.01;99550.70;1804749;79;21484;-67
2021/03/25 10:32:47;;;;;;;7.33;2.77;;;;;;;12.66;22.16;99560.97;1815101;77;28803;-67
2021/03/25 10:35:26;;;;;;;5.97;3.20;;;;;;;12.57;22.82;99565.13;1814823;78;21032;-66
2021/03/25 10:37:58;;;;;;;8.43;3.90;;;;;;;12.48;22.83;99545.88;1800911;79;21020;-67
2021/03/25 10:40:41;;;;;;;9.93;3.83;;;;;;;12.30;22.69;99555.88;1782786;79;20993;-67
2021/03/25 10:43:20;;;;;;;6.90;2.47;;;;;;;12.28;22.53;99538.31;1782571;80;21360;-66
2021/03/25 10:45:51;;;;;;;4.28;2.37;;;;;;;12.40;22.76;99540.39;1781412;80;21040;-67
2021/03/25 10:48:29;;;;;;;5.95;2.72;;;;;;;12.37;23.08;99543.80;1782594;80;20992;-67
2021/03/25 10:51:16;;;;;;;11.28;3.75;;;;;;;12.49;23.43;99528.22;1782346;80;21119;-67
2021/03/25 10:53:47;;;;;;;9.68;3.92;;;;;;;12.70;23.38;99526.13;1782078;80;21190;-67
2021/03/25 10:56:19;;;;;;;7.03;2.95;;;;;;;12.93;21.88;99524.70;1780518;80;21441;-67
2021/03/25 10:59:17;;;;;;;10.68;4.10;;;;;;;13.07;21.99;99517.58;1782498;79;21044;-67
2021/03/25 11:01:50;;;;;;;10.30;2.98;;;;;;;13.18;22.20;99522.41;1782738;79;21111;-68
2021/03/25 11:04:27;;;;;;;17.65;6.72;;;;;;;13.27;21.81;99520.17;1782947;80;21537;-68
2021/03/25 11:06:55;;;;;;;10.68;2.92;;;;;;;12.99;21.87;99525.32;1782531;80;21151;-68
2021/03/25 11:09:28;;;;;;;13.00;3.35;;;;;;;12.78;21.83;99518.36;1752698;80;21195;-68
2021/03/25 11:12:12;;;;;;;21.87;4.50;;;;;;;12.80;21.66;99512.77;1801447;77;21048;-68
2021/03/25 11:14:44;;;;;;;8.40;3.15;;;;;;;12.90;22.08;99522.61;1779365;79;20965;-68
2021/03/25 11:17:31;;;;;;;5.37;2.30;;;;;;;12.89;22.29;99532.02;1790130;77;21052;-67
2021/03/25 11:20:01;;;;;;;3.60;2.55;;;;;;;12.91;22.13;99520.09;1815004;79;21597;-67
2021/03/25 11:22:32;;;;;;;7.20;3.95;;;;;;;13.13;22.18;99522.57;1815316;78;21595;-67
2021/03/25 11:25:01;;;;;;;7.60;3.47;;;;;;;13.13;22.09;99521.19;1814720;79;21048;-67
2021/03/25 11:27:29;;;;;;;14.98;5.80;;;;;;;13.01;21.78;99523.05;1814149;79;21126;-68
2021/03/25 11:30:08;;;;;;;4.72;2.62;;;;;;;12.95;23.01;99516.91;1784660;78;21032;-68
2021/03/25 11:32:39;;;;;;;29.70;14.28;;;;;;;12.97;21.89;99518.77;1796340;77;20921;-66
2021/03/25 11:35:30;;;;;;;29.85;15.60;;;;;;;13.04;22.21;99521.81;1811094;79;21084;-66
2021/03/25 11:38:27;;;;;;;13.32;7.15;;;;;;;13.13;21.52;99508.78;1814779;79;21044;-67
2021/03/25 11:41:11;;;;;;;5.90;2.98;;;;;;;13.33;21.77;99517.42;1776049;79;21021;-67
2021/03/25 11:43:54;;;;;;;8.55;3.40;;;;;;;13.65;20.67;99499.35;1776556;80;21572;-67
2021/03/25 11:46:45;;;;;;;8.28;3.92;;;;;;;13.88;20.49;99501.97;1800808;79;21095;-67
2021/03/25 11:49:19;;;;;;;9.28;3.98;;;;;;;13.77;21.20;99502.98;1814816;78;20913;-67
2021/03/25 11:52:01;;;;;;;13.10;7.28;;;;;;;13.64;20.54;99504.06;1814805;79;21008;-67
2021/03/25 11:54:34;;;;;;;7.28;3.95;;;;;;;13.58;21.47;99497.70;1814975;78;20984;-67
2021/03/25 11:57:27;;;;;;;7.72;3.98;;;;;;;13.74;20.53;99499.52;1814987;79;20989;-68
2021/03/25 12:00:14;;;;;;;11.08;4.92;;;;;;;13.60;21.20;99496.22;1814859;79;20878;-68
2021/03/25 12:02:44;;;;;;;12.80;5.03;;;;;;;13.43;20.53;99493.59;1814787;79;21574;-68
2021/03/25 12:05:39;;;;;;;16.48;6.70;;;;;;;13.11;21.11;99501.42;1814839;79;21476;-68
2021/03/25 12:08:19;;;;;;;13.60;4.47;;;;;;;12.95;21.23;99492.68;1814820;79;20882;-68
2021/03/25 12:10:59;;;;;;;14.60;3.62;;;;;;;12.90;21.93;99498.62;1814812;78;21020;-68
2021/03/25 12:13:28;;;;;;;9.70;3.37;;;;;;;12.96;21.50;99501.19;1800278;79;21060;-68
2021/03/25 12:15:55;;;;;;;9.58;3.10;;;;;;;13.01;22.04;99501.00;1782723;80;21340;-68
2021/03/25 12:18:34;;;;;;;9.85;4.05;;;;;;;12.95;22.31;99499.57;1752860;80;21491;-68
2021/03/25 12:21:08;;;;;;;8.63;3.12;;;;;;;12.92;22.38;99498.29;1782830;80;21500;-68
2021/03/25 12:23:39;;;;;;;9.80;4.33;;;;;;;13.04;22.25;99495.63;1786101;79;21155;-69
2021/03/25 12:26:12;;;;;;;9.38;3.90;;;;;;;13.38;21.80;99506.20;1824016;78;21215;-69
2021/03/25 12:28:40;;;;;;;16.02;7.47;;;;;;;13.47;22.16;99499.48;1827634;78;21540;-68
2021/03/25 12:31:07;;;;;;;13.20;5.30;;;;;;;13.45;21.08;99496.83;1827386;78;21108;-68
2021/03/25 12:33:38;;;;;;;5.95;3.60;;;;;;;13.46;21.05;99489.59;1757387;81;21063;-69